Time;durP1;ratioP1;P1;durP2;ratioP2;P2;SDS_P1;SDS_P2;PMS_P1;PMS_P2;Temp;Humidity;BMP_temperature;BMP_pressure;BME280_temperature;BME280_humidity;BME280_pressure;Samples;Min_cycle;Max_cycle;Signal;HPM_P1;HPM_P2
2021/12/08 00:01:23;;;;;;;48.25;19.30;;;;;;;3.75;70.73;100467.63;1874912;76;21017;-65
2021/12/08 00:03:53;;;;;;;49.23;23.60;;;;;;;3.78;70.69;100455.88;1874953;76;21092;-65
2021/12/08 00:06:22;;;;;;;39.00;17.40;;;;;;;3.81;70.56;100460.16;1874776;76;21026;-65
2021/12/08 00:09:06;;;;;;;33.90;19.10;;;;;;;3.82;70.46;100445.81;1874814;76;21057;-65
2021/12/08 00:14:17;;;;;;;26.82;11.85;;;;;;;3.83;70.05;100455.33;1874810;76;21069;-65
2021/12/08 00:16:46;;;;;;;23.25;11.35;;;;;;;3.82;69.97;100453.63;1874726;76;21552;-65
2021/12/08 00:19:15;;;;;;;27.80;11.53;;;;;;;3.82;69.85;100453.63;1874807;76;21057;-65
2021/12/08 00:21:43;;;;;;;26.95;11.35;;;;;;;3.82;69.78;100457.98;1874870;76;21119;-65
2021/12/08 00:24:12;;;;;;;25.80;11.53;;;;;;;3.80;69.70;100458.01;1874843;76;21118;-65
2021/12/08 00:26:41;;;;;;;26.35;10.55;;;;;;;3.73;69.94;100447.27;1874795;76;21106;-65
2021/12/08 00:29:10;;;;;;;21.62;10.43;;;;;;;3.67;69.98;100454.73;1874774;76;21056;-65
2021/12/08 00:31:40;;;;;;;24.23;10.45;;;;;;;3.63;70.29;100462.59;1874841;76;21448;-65
2021/12/08 00:34:09;;;;;;;23.65;9.80;;;;;;;3.60;70.37;100460.06;1874912;76;21017;-65
2021/12/08 00:36:48;;;;;;;22.70;9.20;;;;;;;3.57;70.29;100462.24;1874917;76;21069;-64
2021/12/08 00:39:14;;;;;;;24.07;10.90;;;;;;;3.57;70.24;100464.00;1874587;76;21045;-64
2021/12/08 00:41:43;;;;;;;26.25;10.25;;;;;;;3.56;70.25;100455.75;1874828;76;21522;-64
2021/12/08 00:44:12;;;;;;;34.78;10.48;;;;;;;3.56;70.18;100440.13;1874778;76;21472;-64
2021/12/08 00:46:41;;;;;;;37.75;11.20;;;;;;;3.55;70.09;100448.84;1874771;76;21017;-64
2021/12/08 00:49:13;;;;;;;25.57;10.78;;;;;;;3.52;70.30;100447.13;1874786;76;21561;-64
2021/12/08 00:51:41;;;;;;;27.30;10.35;;;;;;;3.47;70.43;100442.00;1874785;76;21049;-65
2021/12/08 00:54:10;;;;;;;28.65;10.00;;;;;;;3.43;70.70;100444.23;1874804;76;21053;-64
2021/12/08 00:56:40;;;;;;;21.35;9.95;;;;;;;3.38;70.96;100446.05;1874778;76;21099;-65
2021/12/08 00:59:08;;;;;;;24.27;9.98;;;;;;;3.37;71.07;100443.00;1874848;76;21573;-65
2021/12/08 01:01:38;;;;;;;23.90;10.63;;;;;;;3.37;71.41;100435.20;1875038;76;21135;-65
2021/12/08 01:04:09;;;;;;;23.75;10.28;;;;;;;3.37;71.21;100440.41;1874743;76;21542;-65
2021/12/08 01:06:38;;;;;;;29.30;11.10;;;;;;;3.36;71.06;100436.09;1874737;76;21085;-66
2021/12/08 01:09:06;;;;;;;28.60;11.00;;;;;;;3.36;71.05;100438.70;1874782;76;21056;-65
2021/12/08 01:11:35;;;;;;;33.85;13.65;;;;;;;3.36;70.92;100437.84;1874765;76;21533;-65
2021/12/08 01:14:05;;;;;;;40.67;17.10;;;;;;;3.35;70.90;100442.62;1874893;76;21126;-65
2021/12/08 01:16:34;;;;;;;32.80;16.12;;;;;;;3.34;70.81;100439.17;1874801;76;21492;-65
2021/12/08 01:19:02;;;;;;;36.58;18.07;;;;;;;3.35;70.73;100438.72;1874790;76;21428;-65
2021/12/08 01:21:32;;;;;;;32.05;17.60;;;;;;;3.34;70.68;100435.27;1874697;76;21033;-65
2021/12/08 01:24:01;;;;;;;36.03;16.77;;;;;;;3.31;70.91;100432.69;1874762;76;21029;-65
2021/12/08 01:26:30;;;;;;;31.30;11.28;;;;;;;3.30;71.15;100434.86;1874791;76;21037;-64
2021/12/08 01:28:59;;;;;;;29.70;12.70;;;;;;;3.27;71.20;100433.63;1874754;76;21057;-65
2021/12/08 01:31:28;;;;;;;35.92;13.00;;;;;;;3.22;71.19;100420.66;1874802;76;21045;-65
2021/12/08 01:33:57;;;;;;;25.08;10.23;;;;;;;3.20;71.19;100431.98;1874657;76;21151;-65
2021/12/08 01:36:26;;;;;;;25.55;10.65;;;;;;;3.19;71.23;100425.05;1874770;76;21461;-65
2021/12/08 01:38:55;;;;;;;31.35;10.85;;;;;;;3.14;71.34;100429.48;1874756;76;21461;-65
2021/12/08 01:41:25;;;;;;;32.80;12.10;;;;;;;3.00;72.07;100433.09;1874878;76;21037;-65
2021/12/08 01:46:41;;;;;;;27.42;12.03;;;;;;;2.88;72.45;100431.97;1874736;76;21025;-64
2021/12/08 01:49:10;;;;;;;24.25;10.98;;;;;;;2.75;72.45;100429.08;1874759;76;21061;-63
2021/12/08 01:51:39;;;;;;;25.32;11.00;;;;;;;2.66;72.60;100423.56;1874956;76;21157;-64
2021/12/08 01:54:08;;;;;;;27.82;10.60;;;;;;;2.62;72.83;100424.04;1874801;76;21522;-64
2021/12/08 01:56:37;;;;;;;28.70;11.40;;;;;;;2.60;72.63;100412.80;1874865;76;21036;-64
2021/12/08 01:59:09;;;;;;;26.77;10.68;;;;;;;2.65;72.35;100421.83;1875760;75;21140;-64
2021/12/08 02:01:40;;;;;;;30.15;10.95;;;;;;;2.68;72.26;100421.36;1877491;76;21033;-64
2021/12/08 02:04:09;;;;;;;24.32;9.65;;;;;;;2.67;72.27;100409.25;1877635;76;21068;-64
2021/12/08 02:06:41;;;;;;;23.67;9.30;;;;;;;2.68;72.20;100409.66;1891653;75;21626;-62
2021/12/08 02:09:12;;;;;;;27.85;10.32;;;;;;;2.72;72.02;100409.63;1903926;75;21579;-63
2021/12/08 02:11:45;;;;;;;27.67;11.85;;;;;;;2.74;71.92;100411.77;1901965;75;21066;-63
2021/12/08 02:14:15;;;;;;;30.55;12.33;;;;;;;2.75;72.20;100407.86;1872090;77;21130;-63
2021/12/08 02:16:44;;;;;;;27.00;10.38;;;;;;;2.73;72.49;100404.84;1851384;76;21058;-62
2021/12/08 02:19:14;;;;;;;32.00;12.23;;;;;;;2.75;72.33;100412.17;1881498;75;21105;-63
2021/12/08 02:21:44;;;;;;;32.67;11.35;;;;;;;2.76;72.14;100416.51;1951836;73;20990;-63
2021/12/08 02:24:15;;;;;;;26.23;11.15;;;;;;;2.69;72.23;100404.89;1952263;73;21034;-62
2021/12/08 02:26:47;;;;;;;31.45;11.95;;;;;;;2.69;72.35;100404.89;1952247;73;21034;-63
2021/12/08 02:29:22;;;;;;;30.45;11.93;;;;;;;2.75;72.21;100409.57;1952376;73;21014;-62
2021/12/08 02:32:02;;;;;;;26.82;11.00;;;;;;;2.78;72.65;100384.84;1952210;73;21018;-61
2021/12/08 02:48:20;;;;;;;29.37;12.18;;;;;;;2.78;72.90;100370.55;1932964;74;21009;-63
2021/12/08 02:50:49;;;;;;;28.75;12.53;;;;;;;2.78;72.92;100366.64;1932214;73;21068;-66
2021/12/08 02:53:18;;;;;;;31.45;10.48;;;;;;;2.79;73.26;100372.28;1913735;75;21018;-61
2021/12/08 02:55:47;;;;;;;35.60;12.90;;;;;;;2.80;73.51;100368.78;1942023;73;21607;-63
2021/12/08 02:58:16;;;;;;;28.98;10.80;;;;;;;2.80;73.47;100371.38;1943681;73;21445;-66
2021/12/08 03:00:48;;;;;;;28.12;11.08;;;;;;;2.82;73.32;100374.81;1943496;73;21517;-63
2021/12/08 03:03:17;;;;;;;24.65;10.38;;;;;;;2.85;73.12;100375.64;1924222;73;21018;-63
2021/12/08 03:05:46;;;;;;;28.75;11.22;;;;;;;2.85;73.05;100373.48;1885929;75;21151;-69
2021/12/08 03:08:15;;;;;;;27.95;10.85;;;;;;;2.84;73.05;100383.04;1950559;73;21059;-64
2021/12/08 03:10:47;;;;;;;30.92;12.33;;;;;;;2.83;72.98;100375.25;1950504;73;21034;-61
2021/12/08 03:13:16;;;;;;;30.27;12.47;;;;;;;2.82;73.01;100376.12;1931090;73;21001;-62
2021/12/08 03:15:45;;;;;;;31.48;11.55;;;;;;;2.83;73.02;100386.50;1938307;73;21495;-61
2021/12/08 03:18:14;;;;;;;28.50;11.88;;;;;;;2.85;72.98;100382.59;1947181;73;21149;-60
2021/12/08 03:20:45;;;;;;;37.90;13.25;;;;;;;2.84;72.99;100392.55;1946773;73;21050;-61
2021/12/08 03:23:16;;;;;;;34.15;11.80;;;;;;;2.83;73.25;100396.05;1947169;72;21038;-61
2021/12/08 03:25:55;;;;;;;24.67;11.12;;;;;;;2.86;73.75;100390.83;1946991;74;21034;-60
2021/12/08 03:28:22;;;;;;;28.12;10.85;;;;;;;2.88;73.49;100391.66;1947965;72;21057;-61
2021/12/08 03:31:16;;;;;;;30.60;11.00;;;;;;;2.89;73.32;100389.46;1938120;72;21019;-65
2021/12/08 03:33:37;;;;;;;34.90;15.45;;;;;;;2.86;73.23;100386.92;1935728;72;21124;-64
2021/12/08 03:36:06;;;;;;;35.58;16.10;;;;;;;2.83;73.18;100385.66;1950083;73;21556;-61
2021/12/08 03:38:36;;;;;;;36.90;14.53;;;;;;;2.82;73.23;100393.02;1955229;73;21021;-63
2021/12/08 03:41:06;;;;;;;40.40;14.93;;;;;;;2.81;73.25;100392.62;1948108;73;21116;-64
2021/12/08 03:43:35;;;;;;;31.17;13.15;;;;;;;2.82;73.20;100394.32;1940644;73;21015;-60
2021/12/08 03:46:04;;;;;;;35.30;12.53;;;;;;;2.79;73.21;100391.78;1942128;72;21227;-60
2021/12/08 03:48:47;;;;;;;37.83;11.70;;;;;;;2.79;73.43;100386.58;1946909;73;21471;-60
2021/12/08 03:51:11;;;;;;;30.65;13.05;;;;;;;2.77;73.45;100384.45;1952816;72;21039;-61
2021/12/08 03:53:40;;;;;;;30.25;12.40;;;;;;;2.74;73.99;100374.92;1934789;74;21048;-61
2021/12/08 03:56:09;;;;;;;36.35;11.75;;;;;;;2.72;73.67;100379.73;1935947;74;21015;-60
2021/12/08 03:58:38;;;;;;;27.90;10.98;;;;;;;2.70;73.54;100378.45;1950049;73;21095;-62
2021/12/08 04:01:09;;;;;;;27.55;10.38;;;;;;;2.68;73.52;100365.91;1953102;73;21114;-61
2021/12/08 04:03:40;;;;;;;32.80;10.68;;;;;;;2.67;73.46;100368.95;1955276;73;21013;-61
2021/12/08 04:06:26;;;;;;;27.50;11.22;;;;;;;2.66;73.41;100368.52;1953536;73;21080;-62
2021/12/08 04:08:43;;;;;;;23.40;10.98;;;;;;;2.65;73.37;100368.09;1950300;72;21038;-60
2021/12/08 04:11:12;;;;;;;30.25;12.40;;;;;;;2.65;73.31;100373.73;1947422;72;21094;-61
2021/12/08 04:13:45;;;;;;;23.98;10.48;;;;;;;2.63;73.28;100369.85;1948465;73;21029;-61
2021/12/08 04:16:16;;;;;;;31.97;11.80;;;;;;;2.65;73.21;100365.94;1955314;73;21009;-63
2021/12/08 04:18:45;;;;;;;29.10;11.05;;;;;;;2.65;73.11;100375.04;1953900;73;21058;-62
2021/12/08 04:21:16;;;;;;;32.45;11.40;;;;;;;2.62;73.05;100374.65;1966386;72;21472;-60
2021/12/08 04:23:46;;;;;;;32.90;11.08;;;;;;;2.61;72.96;100375.52;1923520;73;21029;-61
2021/12/08 04:26:18;;;;;;;31.37;11.00;;;;;;;2.54;73.08;100389.45;1905582;74;21023;-61
2021/12/08 04:28:47;;;;;;;27.65;11.30;;;;;;;2.51;73.22;100396.02;1853705;76;21048;-61
2021/12/08 04:31:18;;;;;;;27.32;11.70;;;;;;;2.48;73.35;100392.14;1889790;74;21065;-61
2021/12/08 04:33:53;;;;;;;29.77;10.88;;;;;;;2.43;73.47;100395.22;1849849;75;21020;-62
2021/12/08 04:36:23;;;;;;;28.23;12.88;;;;;;;2.42;73.49;100394.81;1883318;74;21149;-61
2021/12/08 04:38:56;;;;;;;30.35;12.43;;;;;;;2.45;73.42;100387.85;1870883;77;21030;-60
2021/12/08 04:41:31;;;;;;;35.80;13.00;;;;;;;2.48;73.34;100392.99;1911430;74;21022;-63
2021/12/08 04:44:09;;;;;;;42.62;14.47;;;;;;;2.49;73.41;100399.04;1853614;76;21130;-61
2021/12/08 04:49:29;;;;;;;31.77;12.43;;;;;;;2.47;73.41;100408.59;1922215;75;21119;-64
2021/12/08 05:03:05;;;;;;;32.70;14.40;;;;;;;2.53;73.30;100413.75;1908718;75;20990;-63
2021/12/08 05:05:38;;;;;;;37.40;15.45;;;;;;;2.59;73.17;100409.77;1889752;75;21069;-61
2021/12/08 05:08:00;;;;;;;37.73;14.65;;;;;;;2.65;73.08;100413.58;1868208;73;21153;-61
2021/12/08 05:10:31;;;;;;;33.30;13.20;;;;;;;2.73;73.07;100417.83;1868318;77;21221;-60
2021/12/08 05:13:01;;;;;;;31.42;12.18;;;;;;;2.78;73.17;100417.34;1867150;76;21052;-60
2021/12/08 05:15:36;;;;;;;36.98;12.07;;;;;;;2.87;73.26;100408.13;1867550;77;21025;-60
2021/12/08 05:18:13;;;;;;;25.40;10.93;;;;;;;2.99;73.15;100410.58;1868866;77;21080;-60
2021/12/08 05:20:56;;;;;;;48.58;13.28;;;;;;;3.17;72.99;100421.61;1869045;77;21475;-60
2021/12/08 05:23:31;;;;;;;43.05;12.05;;;;;;;3.38;72.90;100425.22;1837970;77;21096;-60
2021/12/08 05:26:02;;;;;;;37.90;12.58;;;;;;;3.69;72.62;100410.44;1841319;77;21108;-60
2021/12/08 05:28:32;;;;;;;29.48;12.23;;;;;;;4.02;72.22;100409.44;1866169;77;21511;-60
2021/12/08 05:31:04;;;;;;;32.00;12.35;;;;;;;4.37;71.69;100414.05;1867615;75;21044;-60
2021/12/08 05:33:33;;;;;;;35.45;12.60;;;;;;;4.74;71.21;100408.11;1867304;77;21072;-61
2021/12/08 05:36:02;;;;;;;33.48;11.43;;;;;;;5.15;70.57;100412.89;1868440;75;21484;-60
2021/12/08 05:38:32;;;;;;;26.37;11.80;;;;;;;5.59;69.81;100415.39;1867485;77;21508;-60
2021/12/08 05:41:06;;;;;;;30.43;11.68;;;;;;;6.03;69.04;100418.70;1867556;77;21645;-60
2021/12/08 05:43:35;;;;;;;24.32;10.08;;;;;;;6.45;68.56;100413.22;1867794;77;21127;-60
2021/12/08 05:46:05;;;;;;;32.30;10.75;;;;;;;6.80;68.21;100409.22;1837788;77;21239;-60
2021/12/08 05:48:35;;;;;;;25.85;11.28;;;;;;;7.22;67.66;100411.02;1859672;77;21121;-61
2021/12/08 05:51:12;;;;;;;39.10;12.28;;;;;;;7.66;67.12;100411.39;1859570;77;21195;-61
2021/12/08 05:53:44;;;;;;;35.73;12.05;;;;;;;8.04;66.32;100404.47;1859751;77;21130;-61
2021/12/08 05:56:13;;;;;;;29.67;11.88;;;;;;;8.55;65.87;100410.63;1859677;77;21085;-61
2021/12/08 05:58:45;;;;;;;32.80;11.50;;;;;;;8.97;65.67;100404.25;1859537;76;21476;-61
2021/12/08 06:01:31;;;;;;;31.12;12.68;;;;;;;9.39;65.36;100403.51;1859900;77;21017;-61
2021/12/08 06:04:01;;;;;;;27.77;13.08;;;;;;;9.85;64.77;100414.80;1861257;77;21578;-62
2021/12/08 06:06:31;;;;;;;36.50;13.58;;;;;;;10.36;63.71;100417.09;1860558;76;21559;-62
2021/12/08 06:09:01;;;;;;;39.25;12.70;;;;;;;10.81;62.67;100408.94;1859117;77;21562;-62
2021/12/08 06:11:31;;;;;;;35.58;14.73;;;;;;;11.21;62.00;100403.59;1859616;77;21097;-61
2021/12/08 06:14:00;;;;;;;38.45;16.37;;;;;;;11.51;61.41;100398.66;1860940;77;21100;-61
2021/12/08 06:16:31;;;;;;;35.52;16.20;;;;;;;11.92;61.02;100402.39;1860783;77;21111;-61
2021/12/08 06:19:00;;;;;;;37.73;15.45;;;;;;;12.19;60.28;100409.86;1860909;77;21073;-60
2021/12/08 06:21:30;;;;;;;30.25;13.45;;;;;;;12.41;59.58;100399.02;1860624;77;21138;-62
2021/12/08 06:24:01;;;;;;;38.42;14.55;;;;;;;12.54;59.27;100400.11;1860906;77;21170;-60
2021/12/08 06:26:30;;;;;;;36.30;14.45;;;;;;;12.77;58.93;100399.34;1860293;77;21165;-60
2021/12/08 06:29:00;;;;;;;31.90;13.88;;;;;;;13.13;57.92;100393.86;1859104;77;21122;-61
2021/12/08 06:31:30;;;;;;;35.80;12.00;;;;;;;13.49;57.08;100398.05;1859012;77;21119;-60
2021/12/08 06:34:00;;;;;;;29.85;13.20;;;;;;;13.75;56.51;100386.92;1857782;76;21038;-62
2021/12/08 06:36:37;;;;;;;29.42;13.13;;;;;;;13.87;56.12;100392.35;1895774;75;21033;-60
2021/12/08 06:39:09;;;;;;;33.75;13.25;;;;;;;13.79;55.42;100384.47;1895266;76;21541;-61
2021/12/08 06:41:40;;;;;;;33.53;11.50;;;;;;;13.70;55.31;100392.46;1894705;76;21483;-61
2021/12/08 06:44:15;;;;;;;22.62;8.75;;;;;;;13.48;55.12;100387.09;1893800;76;21552;-61
2021/12/08 06:46:45;;;;;;;26.33;10.05;;;;;;;13.23;55.29;100393.34;1894637;76;21585;-63
2021/12/08 06:49:16;;;;;;;16.70;8.58;;;;;;;12.87;55.57;100389.13;1895646;76;21044;-63
2021/12/08 06:51:50;;;;;;;16.27;8.55;;;;;;;12.74;55.27;100392.45;1894867;76;21034;-64
2021/12/08 06:57:14;;;;;;;18.45;7.53;;;;;;;12.58;54.50;100388.92;1830049;78;21211;-61
2021/12/08 06:59:59;;;;;;;15.80;7.87;;;;;;;12.26;54.33;100398.03;1830496;78;21508;-60
2021/12/08 07:02:22;;;;;;;18.95;7.65;;;;;;;11.62;55.11;100393.31;1826905;78;21133;-61
2021/12/08 07:07:26;;;;;;;14.58;7.22;;;;;;;11.46;55.82;100392.75;1812144;78;21332;-61
2021/12/08 07:10:03;;;;;;;13.25;6.55;;;;;;;11.90;55.44;100388.42;1828775;78;21073;-60
2021/12/08 07:12:41;;;;;;;16.10;6.67;;;;;;;12.43;54.80;100389.70;1796754;80;21081;-61
2021/12/08 07:15:13;;;;;;;18.95;7.28;;;;;;;12.99;53.82;100388.47;1830271;78;21536;-60
2021/12/08 07:17:45;;;;;;;15.08;7.12;;;;;;;13.63;52.84;100393.75;1827979;78;21488;-62
2021/12/08 07:23:03;;;;;;;15.08;7.20;;;;;;;14.64;52.01;100390.45;1752508;80;21164;-61
2021/12/08 07:25:33;;;;;;;14.68;7.25;;;;;;;15.06;51.61;100388.69;1830282;78;21556;-61
2021/12/08 07:28:04;;;;;;;17.98;7.10;;;;;;;15.19;51.15;100386.59;1771223;80;21606;-61
2021/12/08 07:33:27;;;;;;;17.30;8.13;;;;;;;15.01;50.89;100376.22;1869601;76;21127;-61
2021/12/08 07:35:58;;;;;;;16.65;7.20;;;;;;;14.62;51.54;100377.73;1867914;77;21037;-61
2021/12/08 07:38:30;;;;;;;17.90;7.30;;;;;;;14.22;51.97;100368.23;1869275;77;21060;-60
2021/12/08 07:41:11;;;;;;;29.15;9.45;;;;;;;13.82;52.20;100362.66;1869039;77;21104;-60
2021/12/08 07:43:43;;;;;;;144.65;65.17;;;;;;;13.57;52.47;100379.56;1867803;77;21119;-60
2021/12/08 07:46:17;;;;;;;39.15;14.93;;;;;;;13.66;52.57;100369.78;1867915;76;21616;-59
2021/12/08 07:48:51;;;;;;;30.88;11.28;;;;;;;13.70;52.67;100372.17;1867756;76;21138;-61
2021/12/08 07:51:26;;;;;;;42.35;11.15;;;;;;;13.42;53.06;100372.03;1868094;77;21113;-61
2021/12/08 07:53:56;;;;;;;35.92;11.48;;;;;;;12.97;53.78;100379.77;1869318;75;21173;-61
2021/12/08 07:56:26;;;;;;;38.65;12.37;;;;;;;12.61;54.29;100366.28;1868896;76;21503;-60
2021/12/08 07:59:00;;;;;;;36.90;11.15;;;;;;;12.34;54.77;100357.58;1867960;77;21130;-60
2021/12/08 08:01:31;;;;;;;36.50;13.88;;;;;;;12.01;55.48;100350.07;1868324;77;21537;-61
2021/12/08 08:04:01;;;;;;;40.15;16.00;;;;;;;11.86;55.83;100351.23;1869320;77;21130;-61
2021/12/08 08:06:33;;;;;;;33.95;14.65;;;;;;;11.79;55.93;100348.04;1869241;77;21094;-61
2021/12/08 08:09:04;;;;;;;30.23;13.60;;;;;;;11.70;56.09;100341.06;1869459;77;21031;-60
2021/12/08 08:11:36;;;;;;;33.50;14.65;;;;;;;11.62;56.18;100340.57;1868835;76;21525;-61
2021/12/08 08:14:05;;;;;;;29.72;12.23;;;;;;;11.58;56.28;100342.51;1867722;77;21060;-61
2021/12/08 08:16:37;;;;;;;34.67;14.50;;;;;;;11.63;56.45;100333.91;1868208;75;21061;-60
2021/12/08 08:19:11;;;;;;;31.87;13.13;;;;;;;11.72;56.40;100325.53;1869060;77;21044;-60
2021/12/08 08:21:42;;;;;;;21.45;11.08;;;;;;;11.92;56.33;100325.03;1868975;76;21125;-61
2021/12/08 08:24:11;;;;;;;23.30;9.73;;;;;;;12.27;55.91;100328.48;1869624;76;21122;-60
2021/12/08 08:26:42;;;;;;;31.02;11.22;;;;;;;12.69;55.14;100351.37;1869192;77;21138;-60
2021/12/08 08:29:12;;;;;;;25.68;12.35;;;;;;;13.25;54.20;100349.16;1869332;76;21062;-60
2021/12/08 08:31:48;;;;;;;30.00;14.13;;;;;;;13.76;53.63;100348.47;1868357;76;21083;-61
2021/12/08 08:34:16;;;;;;;42.83;14.38;;;;;;;14.11;52.86;100354.80;1858368;77;21594;-60
2021/12/08 08:36:47;;;;;;;46.37;13.53;;;;;;;14.46;52.27;100357.11;1857578;77;21112;-60
2021/12/08 08:39:25;;;;;;;32.58;13.53;;;;;;;14.79;51.65;100349.34;1859615;77;21034;-60
2021/12/08 08:42:08;;;;;;;30.68;11.93;;;;;;;15.16;51.06;100340.37;1857971;77;21035;-60
2021/12/08 08:44:47;;;;;;;;;;;;;;;15.38;50.69;100337.17;1862999;77;21498;-61
2021/12/08 08:47:22;;;;;;;42.08;15.70;;;;;;;15.69;50.54;100333.34;1827480;77;20121;-63
2021/12/08 08:49:51;;;;;;;50.15;16.80;;;;;;;16.00;50.02;100318.03;1858709;77;21044;-61
2021/12/08 08:52:24;;;;;;;46.08;17.05;;;;;;;16.63;48.71;100314.97;1860214;77;21150;-61
2021/12/08 08:54:56;;;;;;;47.95;19.57;;;;;;;16.92;47.86;100303.59;1861042;76;21049;-60
2021/12/08 08:57:34;;;;;;;29.90;13.65;;;;;;;16.93;47.85;100288.03;1860213;76;21061;-60
2021/12/08 09:00:31;;;;;;;42.23;14.93;;;;;;;17.04;47.75;100295.69;1860174;77;21069;-61
2021/12/08 09:03:03;;;;;;;46.63;20.25;;;;;;;17.20;47.38;100292.27;1858632;77;21100;-61
2021/12/08 09:05:37;;;;;;;45.30;14.40;;;;;;;16.93;47.85;100294.67;1857117;77;21453;-61
2021/12/08 09:08:08;;;;;;;30.72;13.53;;;;;;;16.68;48.18;100317.31;1859641;76;21485;-61
2021/12/08 09:10:40;;;;;;;37.70;11.88;;;;;;;16.45;48.48;100309.17;1859628;77;21543;-61
2021/12/08 09:13:14;;;;;;;41.25;10.48;;;;;;;16.66;48.18;100312.59;1859689;77;21042;-61
2021/12/08 09:15:46;;;;;;;33.15;9.90;;;;;;;17.30;47.23;100325.69;1859700;77;21038;-61
2021/12/08 09:18:18;;;;;;;24.75;7.47;;;;;;;17.99;46.31;100322.36;1827901;77;21073;-61
2021/12/08 09:20:55;;;;;;;16.67;6.35;;;;;;;17.96;46.39;100318.59;1833098;77;21045;-61
2021/12/08 09:23:26;;;;;;;12.78;5.80;;;;;;;18.27;45.81;100319.73;1859253;77;21127;-61
2021/12/08 09:25:57;;;;;;;11.90;5.08;;;;;;;18.78;45.11;100309.07;1860186;77;21119;-61
2021/12/08 09:28:34;;;;;;;17.12;5.90;;;;;;;19.30;44.34;100315.52;1858472;77;21061;-61
2021/12/08 09:31:08;;;;;;;10.65;5.47;;;;;;;19.92;43.53;100324.63;1858374;77;21203;-61
2021/12/08 09:33:42;;;;;;;10.95;6.08;;;;;;;21.14;41.84;100312.20;1857547;77;21772;-61
2021/12/08 09:36:13;;;;;;;13.65;6.08;;;;;;;22.04;40.33;100304.00;1858559;77;21065;-62
2021/12/08 09:38:48;;;;;;;12.33;6.17;;;;;;;22.45;39.60;100309.99;1857273;77;21445;-62
2021/12/08 09:41:25;;;;;;;18.52;6.58;;;;;;;22.83;38.81;100316.98;1858454;77;21489;-61
2021/12/08 09:43:58;;;;;;;17.60;5.78;;;;;;;23.20;38.28;100311.22;1858221;77;21112;-61
2021/12/08 09:46:30;;;;;;;14.45;6.55;;;;;;;23.16;38.04;100305.81;1857543;77;21018;-61
2021/12/08 09:48:59;;;;;;;13.40;6.00;;;;;;;23.28;37.89;100294.69;1859621;77;21038;-60
2021/12/08 09:51:30;;;;;;;17.52;6.40;;;;;;;23.42;37.58;100288.42;1859407;76;21034;-61
2021/12/08 09:53:59;;;;;;;24.47;6.85;;;;;;;23.24;37.66;100290.63;1858481;77;21045;-60
2021/12/08 09:56:29;;;;;;;13.35;6.58;;;;;;;22.98;37.90;100293.19;1865475;76;21183;-60
2021/12/08 09:58:58;;;;;;;15.95;5.67;;;;;;;22.43;38.44;100282.44;1859691;77;21069;-61
2021/12/08 10:01:28;;;;;;;22.40;10.18;;;;;;;21.71;39.44;100282.08;1859873;77;21432;-61
2021/12/08 10:03:59;;;;;;;35.38;14.20;;;;;;;20.92;40.49;100276.31;1860242;77;21565;-60
2021/12/08 10:06:29;;;;;;;23.40;8.65;;;;;;;20.27;41.56;100271.30;1860320;77;21032;-59
2021/12/08 10:08:59;;;;;;;16.48;6.47;;;;;;;19.55;42.58;100274.28;1860167;77;21048;-59
2021/12/08 10:11:32;;;;;;;20.52;8.73;;;;;;;18.83;43.67;100266.41;1860280;76;21013;-59
2021/12/08 10:14:03;;;;;;;15.23;7.40;;;;;;;18.20;44.85;100259.89;1860518;77;21468;-59
2021/12/08 10:16:32;;;;;;;17.98;8.25;;;;;;;17.71;45.74;100259.20;1859601;77;21069;-59
2021/12/08 10:19:03;;;;;;;15.68;8.03;;;;;;;17.29;46.36;100257.00;1858465;77;21095;-58
2021/12/08 10:21:40;;;;;;;17.45;6.78;;;;;;;16.86;47.07;100269.48;1858887;77;21080;-58
2021/12/08 10:24:18;;;;;;;16.12;7.67;;;;;;;16.51;47.72;100258.72;1859661;77;21026;-59
2021/12/08 10:26:48;;;;;;;17.30;8.78;;;;;;;16.33;48.13;100258.21;1859023;77;21135;-58
2021/12/08 10:32:15;;;;;;;20.12;7.05;;;;;;;17.45;46.40;100255.38;1725650;82;21210;-58
2021/12/08 10:34:53;;;;;;;20.85;10.53;;;;;;;18.12;45.16;100256.50;1778569;80;21140;-58
2021/12/08 10:37:20;;;;;;;29.42;7.90;;;;;;;18.43;44.61;100250.92;1776816;79;21058;-58
2021/12/08 10:39:54;;;;;;;32.90;6.33;;;;;;;19.17;43.47;100255.63;1778376;81;21153;-58
2021/12/08 10:42:24;;;;;;;20.30;5.87;;;;;;;19.15;43.23;100250.91;1778542;79;21110;-59
2021/12/08 10:45:15;;;;;;;27.48;5.75;;;;;;;18.41;44.20;100259.53;1778428;81;21094;-58
2021/12/08 10:47:50;;;;;;;24.60;6.33;;;;;;;17.80;45.31;100254.50;1778562;79;21081;-58
2021/12/08 10:56:10;;;;;;;27.70;7.37;;;;;;;16.44;47.67;100242.35;1783007;79;21182;-58
2021/12/08 10:58:43;;;;;;;19.87;5.35;;;;;;;16.17;48.26;100240.67;1806223;79;21151;-59
2021/12/08 11:01:20;;;;;;;18.00;6.15;;;;;;;15.98;48.56;100242.94;1806275;79;21065;-59
2021/12/08 11:03:51;;;;;;;19.15;7.28;;;;;;;15.83;48.90;100245.70;1806231;79;21080;-59
2021/12/08 11:06:20;;;;;;;20.82;8.03;;;;;;;15.74;49.13;100240.17;1806268;79;21065;-59
2021/12/08 11:08:54;;;;;;;25.68;6.35;;;;;;;15.62;49.50;100236.51;1806182;79;21124;-58
2021/12/08 11:11:30;;;;;;;16.75;7.00;;;;;;;15.51;49.88;100234.61;1806319;79;21167;-59
2021/12/08 11:14:01;;;;;;;22.87;7.67;;;;;;;15.42;50.11;100226.78;1806267;79;21144;-58
2021/12/08 11:16:33;;;;;;;21.55;7.60;;;;;;;15.32;50.37;100228.34;1806286;79;21516;-58
2021/12/08 11:19:06;;;;;;;21.82;7.25;;;;;;;15.19;50.76;100236.75;1806240;79;21089;-59
2021/12/08 11:21:41;;;;;;;30.17;6.97;;;;;;;15.08;51.14;100231.31;1806309;79;21053;-59
2021/12/08 11:24:44;;;;;;;24.30;6.10;;;;;;;14.99;51.31;100230.95;1806241;79;21130;-59
2021/12/08 11:26:54;;;;;;;13.03;4.90;;;;;;;14.90;51.45;100236.85;1785812;79;21474;-59
2021/12/08 11:29:25;;;;;;;16.62;5.65;;;;;;;14.86;51.56;100235.36;1778523;81;21155;-58
2021/12/08 11:32:22;;;;;;;16.23;5.10;;;;;;;14.81;51.63;100234.80;1785054;80;21579;-57
2021/12/08 11:34:48;;;;;;;;;;;;;;;14.79;51.77;100239.35;1898206;75;21083;-57
2021/12/08 11:37:20;;;;;;;14.20;4.80;;;;;;;14.75;51.78;100243.16;1916718;74;20156;-58
2021/12/08 11:39:52;;;;;;;15.93;5.08;;;;;;;14.71;52.01;100257.56;1928944;74;21415;-59
2021/12/08 11:42:24;;;;;;;15.58;5.92;;;;;;;14.66;52.15;100253.41;1928409;74;21179;-59
2021/12/08 11:44:59;;;;;;;14.30;5.05;;;;;;;14.60;52.46;100248.48;1929102;74;21069;-59
2021/12/08 11:47:34;;;;;;;12.30;5.15;;;;;;;14.55;52.64;100250.56;1928334;74;21010;-59
2021/12/08 11:50:11;;;;;;;16.48;4.97;;;;;;;14.49;52.77;100253.09;1928741;74;21002;-57
2021/12/08 11:52:40;;;;;;;15.48;4.45;;;;;;;14.45;52.88;100256.05;1927670;74;21034;-59
2021/12/08 11:55:11;;;;;;;14.35;5.37;;;;;;;14.41;52.99;100258.05;1928597;74;21046;-58
2021/12/08 11:57:45;;;;;;;14.43;5.05;;;;;;;14.35;53.20;100261.09;1928520;74;21099;-58
2021/12/08 12:00:23;;;;;;;21.05;5.80;;;;;;;14.32;53.39;100274.99;1928849;74;21026;-58
2021/12/08 12:02:58;;;;;;;28.45;6.92;;;;;;;14.26;53.48;100278.88;1928356;74;21061;-58
2021/12/08 12:05:30;;;;;;;16.37;5.58;;;;;;;14.25;53.58;100274.51;1928569;74;21081;-60
2021/12/08 12:08:00;;;;;;;15.58;5.35;;;;;;;14.22;53.77;100283.50;1866260;74;21121;-60
2021/12/08 12:10:32;;;;;;;15.15;5.33;;;;;;;14.17;53.90;100289.55;1863601;77;21605;-59
2021/12/08 12:13:03;;;;;;;19.10;4.67;;;;;;;14.09;54.02;100288.70;1863725;76;21075;-59
2021/12/08 12:15:32;;;;;;;15.38;5.75;;;;;;;14.02;54.19;100289.16;1863595;77;21035;-59
2021/12/08 12:18:02;;;;;;;19.12;5.50;;;;;;;13.95;54.32;100295.77;1883708;74;21081;-59
2021/12/08 12:20:42;;;;;;;20.43;6.22;;;;;;;13.86;54.41;100294.04;1884638;76;21522;-59
2021/12/08 12:23:22;;;;;;;20.65;6.08;;;;;;;13.81;54.57;100302.72;1884640;76;21192;-59
2021/12/08 12:26:09;;;;;;;25.08;7.28;;;;;;;13.72;54.71;100303.27;1884944;74;21522;-59
2021/12/08 12:29:01;;;;;;;25.62;5.95;;;;;;;13.66;54.79;100307.12;1884442;76;21052;-59
2021/12/08 12:31:35;;;;;;;23.07;7.05;;;;;;;13.59;54.95;100312.88;1884856;74;21173;-59